Time;durP1;ratioP1;P1;durP2;ratioP2;P2;SDS_P1;SDS_P2;PMS_P1;PMS_P2;Temp;Humidity;BMP_temperature;BMP_pressure;BME280_temperature;BME280_humidity;BME280_pressure;Samples;Min_cycle;Max_cycle;Signal;HPM_P1;HPM_P2
2022/03/23 00:01:28;;;;;;;29.33;16.52;;;12.00;49.30;;;;;;5133330;28;20049;-66
2022/03/23 00:03:54;;;;;;;30.42;15.80;;;12.00;48.90;;;;;;5134321;28;20053;-66
2022/03/23 00:06:19;;;;;;;38.35;17.10;;;12.00;48.80;;;;;;5133272;28;20061;-66
2022/03/23 00:08:45;;;;;;;32.50;15.57;;;12.00;49.20;;;;;;5134365;28;20034;-66
2022/03/23 00:11:11;;;;;;;36.55;15.85;;;12.00;49.30;;;;;;5134312;28;20032;-66
2022/03/23 00:13:37;;;;;;;31.50;15.82;;;12.00;49.70;;;;;;5134049;28;20031;-66
2022/03/23 00:16:05;;;;;;;28.42;15.20;;;11.90;50.00;;;;;;5134033;28;20062;-66
2022/03/23 00:18:31;;;;;;;33.55;15.95;;;11.50;50.00;;;;;;5134137;28;20016;-66
2022/03/23 00:20:57;;;;;;;31.27;15.93;;;11.50;50.00;;;;;;5134215;28;20028;-66
2022/03/23 00:23:22;;;;;;;31.55;16.02;;;11.40;50.30;;;;;;5134032;28;20112;-66
2022/03/23 00:25:48;;;;;;;34.78;16.85;;;11.40;50.20;;;;;;5134011;28;20049;-66
2022/03/23 00:28:14;;;;;;;33.55;16.55;;;11.30;50.30;;;;;;5133895;28;20035;-66
2022/03/23 00:30:40;;;;;;;33.42;16.55;;;10.90;50.90;;;;;;5133943;28;20039;-66
2022/03/23 00:33:05;;;;;;;36.28;17.02;;;10.80;51.60;;;;;;5133852;28;20149;-66
2022/03/23 00:35:32;;;;;;;29.90;15.05;;;10.90;51.90;;;;;;5133951;28;20032;-66
2022/03/23 00:37:58;;;;;;;29.40;15.52;;;10.90;51.60;;;;;;5133879;28;20019;-66
2022/03/23 00:40:25;;;;;;;31.65;16.15;;;10.80;51.80;;;;;;5133864;28;20016;-65
2022/03/23 00:42:51;;;;;;;34.95;15.82;;;10.80;51.80;;;;;;5133815;28;20051;-66
2022/03/23 00:45:17;;;;;;;33.45;15.65;;;10.80;51.80;;;;;;5133757;28;20028;-66
2022/03/23 00:47:47;;;;;;;29.58;15.90;;;10.60;51.60;;;;;;5133768;28;20368;-66
2022/03/23 00:50:14;;;;;;;33.47;15.98;;;10.70;52.20;;;;;;5133792;28;20027;-66
2022/03/23 00:52:40;;;;;;;29.58;15.00;;;10.60;52.20;;;;;;5133758;28;20024;-66
2022/03/23 00:55:09;;;;;;;36.25;16.13;;;10.70;51.70;;;;;;5133657;28;20027;-66
2022/03/23 00:57:38;;;;;;;33.50;15.68;;;10.80;51.50;;;;;;5133714;28;20044;-66
2022/03/23 01:00:12;;;;;;;30.08;14.77;;;10.70;52.90;;;;;;5133631;28;20028;-66
2022/03/23 01:02:40;;;;;;;34.88;15.80;;;10.70;51.90;;;;;;5133708;28;20030;-66
2022/03/23 01:05:08;;;;;;;29.45;15.73;;;10.80;51.70;;;;;;5133627;28;20073;-67
2022/03/23 01:07:34;;;;;;;28.75;14.88;;;10.90;51.40;;;;;;5133606;28;20089;-67
2022/03/23 01:09:59;;;;;;;37.25;15.88;;;10.90;51.10;;;;;;5133586;28;20048;-66
2022/03/23 01:12:25;;;;;;;30.60;15.35;;;10.80;50.80;;;;;;5133537;28;20035;-67
2022/03/23 01:14:51;;;;;;;32.10;16.02;;;10.80;50.60;;;;;;5133441;28;20043;-67
2022/03/23 01:17:16;;;;;;;30.88;15.80;;;10.70;50.90;;;;;;5133379;28;20048;-66
2022/03/23 01:19:42;;;;;;;26.27;14.15;;;10.60;51.20;;;;;;5133552;28;20045;-66
2022/03/23 01:22:08;;;;;;;30.42;14.77;;;10.50;51.50;;;;;;5133589;28;20019;-67
2022/03/23 01:24:34;;;;;;;25.80;14.63;;;10.30;51.60;;;;;;5133457;28;20051;-66
2022/03/23 01:27:01;;;;;;;31.52;15.48;;;10.30;52.10;;;;;;5136790;28;20038;-67
2022/03/23 01:29:27;;;;;;;31.50;15.05;;;10.30;52.30;;;;;;5137316;28;20020;-67
2022/03/23 01:31:53;;;;;;;30.95;15.68;;;10.30;52.40;;;;;;5137305;28;20571;-67
2022/03/23 01:34:18;;;;;;;37.10;15.77;;;10.10;52.90;;;;;;5137183;28;20057;-66
2022/03/23 01:36:44;;;;;;;34.60;16.20;;;10.00;53.10;;;;;;5136170;28;20051;-66
2022/03/23 01:39:10;;;;;;;30.90;16.15;;;9.90;53.30;;;;;;5137156;28;20129;-66
2022/03/23 01:41:38;;;;;;;33.75;16.70;;;10.00;53.30;;;;;;5137154;28;20047;-67
2022/03/23 01:44:21;;;;;;;35.55;16.58;;;10.00;53.50;;;;;;5137062;28;20083;-66
2022/03/23 01:47:07;;;;;;;37.55;17.20;;;10.00;53.80;;;;;;5137216;28;20047;-66
2022/03/23 01:49:38;;;;;;;37.78;16.67;;;10.00;53.20;;;;;;5136998;28;20023;-66
2022/03/23 01:52:06;;;;;;;35.30;17.27;;;10.10;53.00;;;;;;5136985;28;20079;-66
2022/03/23 01:54:32;;;;;;;34.97;16.70;;;10.10;52.80;;;;;;5136808;28;20024;-66
2022/03/23 01:56:59;;;;;;;32.67;16.77;;;10.10;52.80;;;;;;5136822;28;20107;-66
2022/03/23 01:59:26;;;;;;;32.35;16.90;;;10.00;53.10;;;;;;5136800;27;20031;-66
2022/03/23 02:01:53;;;;;;;34.35;15.63;;;10.00;52.80;;;;;;5136759;28;20027;-66
2022/03/23 02:04:19;;;;;;;34.58;16.33;;;9.80;53.40;;;;;;5136711;28;20032;-66
2022/03/23 02:06:46;;;;;;;34.08;15.80;;;9.80;53.90;;;;;;5135578;28;20098;-66
2022/03/23 02:09:12;;;;;;;32.75;16.40;;;9.80;53.90;;;;;;5136618;28;20030;-66
2022/03/23 02:11:39;;;;;;;34.70;16.83;;;9.80;53.80;;;;;;5136522;28;20032;-66
2022/03/23 02:14:05;;;;;;;35.80;17.08;;;9.70;53.80;;;;;;5136429;27;20024;-67
2022/03/23 02:16:41;;;;;;;33.47;16.50;;;9.70;53.70;;;;;;5136347;28;20050;-66
2022/03/23 02:19:07;;;;;;;31.15;15.95;;;9.60;54.00;;;;;;5135448;28;20043;-66
2022/03/23 02:21:34;;;;;;;34.47;16.55;;;9.70;54.20;;;;;;5136463;28;20023;-65
2022/03/23 02:24:02;;;;;;;31.50;16.52;;;9.70;54.20;;;;;;5136308;28;20026;-65
2022/03/23 02:26:28;;;;;;;32.35;17.17;;;9.40;54.20;;;;;;5136287;28;20030;-66
2022/03/23 02:28:54;;;;;;;36.72;16.63;;;9.30;54.60;;;;;;5136202;28;20024;-66
2022/03/23 02:31:20;;;;;;;34.53;15.73;;;9.30;54.60;;;;;;5136150;28;20031;-67
2022/03/23 02:33:46;;;;;;;34.60;16.95;;;9.30;54.90;;;;;;5136046;28;20038;-67
2022/03/23 02:36:11;;;;;;;36.63;15.90;;;9.20;55.30;;;;;;5135894;28;20035;-66
2022/03/23 02:38:37;;;;;;;32.83;16.27;;;9.30;55.20;;;;;;5135002;28;20024;-66
2022/03/23 02:41:03;;;;;;;32.30;16.52;;;9.30;54.90;;;;;;5136014;28;20020;-67
2022/03/23 02:43:29;;;;;;;31.08;15.70;;;9.20;55.10;;;;;;5135929;28;20035;-67
2022/03/23 02:45:55;;;;;;;30.52;15.68;;;9.20;55.70;;;;;;5135843;28;20110;-67
2022/03/23 02:48:21;;;;;;;36.13;16.45;;;9.20;55.60;;;;;;5135771;28;20053;-67
2022/03/23 02:50:46;;;;;;;36.33;18.25;;;9.20;56.00;;;;;;5135836;28;20095;-67
2022/03/23 03:02:07;;;;;;;35.33;16.35;;;9.30;56.50;;;;;;5135608;28;20031;-67
2022/03/23 03:04:32;;;;;;;32.97;16.35;;;9.30;55.90;;;;;;5135558;28;20056;-66
2022/03/23 03:06:58;;;;;;;32.08;17.42;;;9.00;56.30;;;;;;5135437;28;20051;-66
2022/03/23 03:09:23;;;;;;;33.42;16.35;;;9.00;56.40;;;;;;5135417;28;20087;-67
2022/03/23 03:11:49;;;;;;;36.45;17.50;;;8.90;56.30;;;;;;5135358;28;20020;-67
2022/03/23 03:14:15;;;;;;;35.40;16.00;;;8.80;57.00;;;;;;5135261;28;20016;-67
2022/03/23 03:16:41;;;;;;;36.55;16.77;;;8.60;58.50;;;;;;5135137;28;20081;-67
2022/03/23 03:19:11;;;;;;;36.65;17.17;;;8.70;58.20;;;;;;5135196;28;20422;-67
2022/03/23 03:21:37;;;;;;;33.47;16.40;;;8.70;57.70;;;;;;5135370;28;20020;-66
2022/03/23 03:24:03;;;;;;;42.13;17.60;;;8.80;57.40;;;;;;5135278;28;20156;-67
2022/03/23 03:26:32;;;;;;;27.83;14.75;;;8.80;57.50;;;;;;5135043;28;20028;-66
2022/03/23 03:28:58;;;;;;;36.90;14.93;;;8.90;56.90;;;;;;5134957;28;20027;-67
2022/03/23 03:31:23;;;;;;;37.13;16.40;;;8.80;56.20;;;;;;5134991;28;20024;-66
2022/03/23 03:33:49;;;;;;;35.22;17.15;;;8.60;56.30;;;;;;5134853;28;20051;-67
2022/03/23 03:36:15;;;;;;;32.20;16.65;;;8.30;57.60;;;;;;5134852;28;20026;-66
2022/03/23 03:38:43;;;;;;;39.53;18.35;;;7.80;58.50;;;;;;5134863;28;20020;-66
2022/03/23 03:41:09;;;;;;;39.70;17.42;;;7.90;59.30;;;;;;5133775;28;20073;-67
2022/03/23 03:43:36;;;;;;;35.65;17.48;;;8.00;59.90;;;;;;5134534;28;20023;-66
2022/03/23 03:46:02;;;;;;;34.80;17.33;;;8.10;60.60;;;;;;5134696;28;20028;-66
2022/03/23 03:48:28;;;;;;;34.58;16.92;;;8.30;59.90;;;;;;5134362;28;20034;-66
2022/03/23 03:50:54;;;;;;;34.78;16.27;;;8.30;59.60;;;;;;5134600;28;20452;-66
2022/03/23 03:53:20;;;;;;;34.67;17.50;;;8.40;59.10;;;;;;5134465;28;20031;-66
2022/03/23 03:55:46;;;;;;;37.25;17.45;;;8.40;58.40;;;;;;5134550;28;20043;-66
2022/03/23 03:58:12;;;;;;;45.88;17.95;;;8.40;58.40;;;;;;5134499;28;20038;-66
2022/03/23 04:00:38;;;;;;;35.88;17.75;;;8.40;58.40;;;;;;5134444;28;20015;-66
2022/03/23 04:03:04;;;;;;;37.90;18.35;;;8.40;58.50;;;;;;5134464;28;20046;-66
2022/03/23 04:05:30;;;;;;;39.60;18.05;;;8.30;59.50;;;;;;5134366;28;20023;-66
2022/03/23 04:07:56;;;;;;;38.85;17.95;;;8.30;58.60;;;;;;5134336;28;20035;-65
2022/03/23 04:10:23;;;;;;;36.67;17.63;;;8.30;59.70;;;;;;5134292;28;20077;-65
2022/03/23 04:12:49;;;;;;;37.95;18.73;;;8.10;59.10;;;;;;5134238;28;20023;-65
2022/03/23 04:15:15;;;;;;;38.78;17.58;;;8.00;59.20;;;;;;5132907;28;20101;-66
2022/03/23 04:17:41;;;;;;;38.65;17.35;;;7.90;59.30;;;;;;5134211;28;20020;-66
2022/03/23 04:20:08;;;;;;;38.88;17.70;;;7.90;59.40;;;;;;5134272;28;20019;-66
2022/03/23 04:22:34;;;;;;;37.65;17.52;;;7.90;59.40;;;;;;5134141;28;20533;-66
2022/03/23 04:25:00;;;;;;;37.58;16.30;;;8.00;59.10;;;;;;5134137;28;20024;-66
2022/03/23 04:27:26;;;;;;;37.50;17.88;;;8.00;59.10;;;;;;5134092;28;20109;-66
2022/03/23 04:29:52;;;;;;;33.30;16.38;;;7.90;59.30;;;;;;5134081;28;20036;-66
2022/03/23 04:32:18;;;;;;;32.78;16.10;;;7.90;59.50;;;;;;5133970;28;20032;-66
2022/03/23 04:34:43;;;;;;;37.72;17.10;;;7.90;59.10;;;;;;5133810;28;20038;-66
2022/03/23 04:37:09;;;;;;;37.42;17.63;;;8.00;58.70;;;;;;5132919;28;20038;-65
2022/03/23 04:39:34;;;;;;;32.20;16.50;;;8.00;58.40;;;;;;5133993;28;20045;-66
2022/03/23 04:42:00;;;;;;;35.42;16.05;;;8.00;58.50;;;;;;5133960;28;20028;-66
2022/03/23 04:44:26;;;;;;;35.08;15.95;;;8.10;58.30;;;;;;5133806;28;20036;-66
2022/03/23 04:46:52;;;;;;;34.78;15.25;;;8.10;58.00;;;;;;5133790;28;20083;-66
2022/03/23 04:49:18;;;;;;;33.20;16.15;;;8.20;58.90;;;;;;5133779;28;20023;-66
2022/03/23 04:51:43;;;;;;;37.00;17.10;;;8.20;57.90;;;;;;5133733;28;20364;-66
2022/03/23 04:54:09;;;;;;;32.85;16.13;;;8.20;57.70;;;;;;5133645;28;20046;-66
2022/03/23 04:56:35;;;;;;;41.90;17.35;;;8.10;57.90;;;;;;5133680;28;20024;-66
2022/03/23 04:59:01;;;;;;;34.53;16.52;;;8.00;58.60;;;;;;5133797;28;20076;-66
2022/03/23 05:01:26;;;;;;;33.53;15.98;;;7.90;59.10;;;;;;5136304;28;20030;-66
2022/03/23 05:03:52;;;;;;;34.70;16.85;;;7.90;58.90;;;;;;5137848;28;20095;-66
2022/03/23 05:06:19;;;;;;;32.45;15.30;;;7.70;58.80;;;;;;5137846;28;20028;-66
2022/03/23 05:08:44;;;;;;;39.55;17.10;;;7.50;59.30;;;;;;5137834;28;20071;-66
2022/03/23 05:11:10;;;;;;;39.13;17.73;;;7.60;59.30;;;;;;5137737;28;20484;-66
2022/03/23 05:13:36;;;;;;;35.72;17.17;;;7.70;59.20;;;;;;5137649;28;20024;-66
2022/03/23 05:16:01;;;;;;;33.15;17.15;;;7.70;59.20;;;;;;5137465;28;20059;-66
2022/03/23 05:18:28;;;;;;;35.92;16.67;;;7.50;59.90;;;;;;5136569;28;20051;-66
2022/03/23 05:20:53;;;;;;;34.42;16.05;;;7.40;59.90;;;;;;5137573;28;20020;-66
2022/03/23 05:23:19;;;;;;;36.92;16.38;;;7.50;59.70;;;;;;5137477;28;20047;-66
2022/03/23 05:25:44;;;;;;;34.33;16.85;;;7.60;59.50;;;;;;5137446;28;20057;-66
2022/03/23 05:28:10;;;;;;;41.45;17.05;;;7.50;59.50;;;;;;5137321;28;20031;-66
2022/03/23 05:30:36;;;;;;;39.95;17.60;;;7.50;59.50;;;;;;5137322;28;20491;-66
2022/03/23 05:33:02;;;;;;;34.80;16.30;;;7.50;59.70;;;;;;5137337;28;20024;-66
2022/03/23 05:35:29;;;;;;;41.33;17.42;;;7.50;59.60;;;;;;5137207;28;20039;-66
2022/03/23 05:37:55;;;;;;;37.05;18.35;;;7.50;59.70;;;;;;5137285;28;20024;-66
2022/03/23 05:40:21;;;;;;;37.00;17.23;;;7.40;59.70;;;;;;5137184;28;20035;-66
2022/03/23 05:42:47;;;;;;;39.05;18.15;;;7.30;60.00;;;;;;5137233;28;20058;-66
2022/03/23 05:45:13;;;;;;;37.65;17.88;;;7.30;60.50;;;;;;5137074;28;20020;-66
2022/03/23 05:47:40;;;;;;;40.33;17.92;;;7.20;61.20;;;;;;5136921;28;20045;-67
2022/03/23 05:50:08;;;;;;;35.65;18.10;;;7.20;62.00;;;;;;5136994;28;20395;-66
2022/03/23 05:52:34;;;;;;;36.17;17.63;;;7.20;61.90;;;;;;5136980;27;20055;-65
2022/03/23 05:55:01;;;;;;;38.28;17.08;;;7.30;61.70;;;;;;5136830;28;20024;-66
2022/03/23 05:57:27;;;;;;;42.67;17.20;;;7.40;61.60;;;;;;5136854;28;20023;-66
2022/03/23 05:59:53;;;;;;;41.08;17.38;;;7.40;61.10;;;;;;5136915;28;20111;-66
2022/03/23 06:02:19;;;;;;;34.10;16.23;;;7.30;61.30;;;;;;5136762;28;20027;-66
2022/03/23 06:04:46;;;;;;;36.00;18.08;;;7.20;62.00;;;;;;5136668;28;20039;-66
2022/03/23 06:07:12;;;;;;;36.53;17.58;;;7.20;62.60;;;;;;5136819;28;20047;-66
2022/03/23 06:09:38;;;;;;;35.65;16.50;;;7.00;63.10;;;;;;5136591;28;20028;-66
2022/03/23 06:12:04;;;;;;;36.08;16.88;;;6.90;63.40;;;;;;5136375;28;20052;-65
2022/03/23 06:14:32;;;;;;;43.75;17.80;;;6.80;63.70;;;;;;5135395;28;20077;-65
2022/03/23 06:16:58;;;;;;;36.08;17.17;;;6.90;63.40;;;;;;5136189;28;20057;-65
2022/03/23 06:19:23;;;;;;;39.40;15.98;;;7.10;62.90;;;;;;5136421;28;20063;-67
2022/03/23 06:21:49;;;;;;;32.53;15.57;;;7.30;63.40;;;;;;5136405;28;20094;-66
2022/03/23 06:24:15;;;;;;;33.60;16.70;;;7.40;62.10;;;;;;5136346;28;20024;-66
2022/03/23 06:26:40;;;;;;;37.65;16.50;;;7.40;62.10;;;;;;5136242;28;20062;-66
2022/03/23 06:29:07;;;;;;;35.33;17.75;;;7.40;62.30;;;;;;5136189;28;20039;-66
2022/03/23 06:31:32;;;;;;;33.85;15.82;;;7.40;62.50;;;;;;5136254;28;20034;-66
2022/03/23 06:33:59;;;;;;;35.55;16.88;;;7.40;62.00;;;;;;5136005;28;20027;-66
2022/03/23 06:36:25;;;;;;;36.55;17.35;;;7.30;62.00;;;;;;5136066;28;20019;-66
2022/03/23 06:38:51;;;;;;;38.33;17.80;;;7.30;62.20;;;;;;5136105;28;20019;-67
2022/03/23 06:41:17;;;;;;;38.88;17.92;;;7.30;62.50;;;;;;5135997;27;20024;-66
2022/03/23 06:43:43;;;;;;;42.70;17.90;;;7.30;63.10;;;;;;5135974;28;20038;-66
2022/03/23 06:46:09;;;;;;;39.17;18.42;;;7.40;62.80;;;;;;5135872;28;20047;-66
2022/03/23 06:48:35;;;;;;;33.50;16.52;;;7.50;62.70;;;;;;5135883;28;20045;-65
2022/03/23 06:51:01;;;;;;;38.67;17.17;;;7.60;62.60;;;;;;5135785;28;20083;-66
2022/03/23 06:53:26;;;;;;;35.72;16.38;;;7.60;62.50;;;;;;5135693;28;20034;-66
2022/03/23 06:55:52;;;;;;;41.00;17.42;;;7.70;62.70;;;;;;5135700;28;20030;-65
2022/03/23 06:58:18;;;;;;;40.70;17.00;;;7.80;62.70;;;;;;5135703;28;20019;-65
2022/03/23 07:00:44;;;;;;;35.97;17.33;;;7.80;63.30;;;;;;5135595;28;20062;-66
2022/03/23 07:03:09;;;;;;;37.42;17.48;;;7.90;63.30;;;;;;5135524;28;20042;-66
2022/03/23 07:05:36;;;;;;;37.05;17.33;;;8.00;63.20;;;;;;5135485;28;20035;-66
2022/03/23 07:10:47;;;;;;;36.10;16.83;;;8.10;62.90;;;;;;5135536;28;20114;-66
2022/03/23 07:13:14;;;;;;;35.47;17.00;;;8.10;63.40;;;;;;5135339;28;20031;-67
2022/03/23 07:15:40;;;;;;;36.25;17.45;;;8.20;63.40;;;;;;5134910;28;20103;-66
2022/03/23 07:18:06;;;;;;;34.90;16.45;;;8.20;63.40;;;;;;5135307;28;20019;-66
2022/03/23 07:20:31;;;;;;;36.83;17.95;;;8.20;62.80;;;;;;5135194;28;20091;-66
2022/03/23 07:22:57;;;;;;;36.65;17.38;;;8.30;62.30;;;;;;5134267;28;20031;-66
2022/03/23 07:25:23;;;;;;;33.25;17.08;;;8.30;62.80;;;;;;5135119;28;20050;-66
2022/03/23 07:27:48;;;;;;;38.35;17.63;;;8.40;62.30;;;;;;5135031;28;20090;-66
2022/03/23 07:30:14;;;;;;;36.58;17.25;;;8.40;62.10;;;;;;5134931;28;20484;-66
2022/03/23 07:32:40;;;;;;;37.03;17.60;;;8.50;62.50;;;;;;5134970;27;20023;-66
2022/03/23 07:35:07;;;;;;;35.65;17.85;;;8.70;62.60;;;;;;5134859;28;20027;-66
2022/03/23 07:37:36;;;;;;;37.08;17.98;;;8.70;62.40;;;;;;5134898;28;20024;-66
2022/03/23 07:40:03;;;;;;;37.33;17.90;;;8.80;62.10;;;;;;5134793;28;20426;-66
2022/03/23 07:42:29;;;;;;;34.95;18.05;;;8.90;61.40;;;;;;5134797;28;20011;-66
2022/03/23 07:44:55;;;;;;;38.42;18.23;;;8.90;61.10;;;;;;5134694;28;20032;-67
2022/03/23 07:47:21;;;;;;;36.05;18.45;;;9.00;61.10;;;;;;5134577;28;20032;-67
2022/03/23 07:49:47;;;;;;;38.97;17.45;;;9.00;61.40;;;;;;5134699;28;20054;-67
2022/03/23 07:52:12;;;;;;;36.42;18.08;;;9.10;61.50;;;;;;5134535;28;20054;-66
2022/03/23 07:54:38;;;;;;;36.40;18.25;;;9.20;61.00;;;;;;5134496;28;20039;-66
2022/03/23 07:57:04;;;;;;;36.00;17.42;;;9.20;60.60;;;;;;5134474;28;20016;-66
2022/03/23 07:59:30;;;;;;;37.65;18.70;;;9.30;60.70;;;;;;5134454;28;20028;-66
2022/03/23 08:01:56;;;;;;;43.60;18.65;;;9.40;60.60;;;;;;5134438;28;20027;-66
2022/03/23 08:04:21;;;;;;;40.45;18.25;;;9.60;60.90;;;;;;5134327;28;20039;-66
2022/03/23 08:06:47;;;;;;;35.67;18.38;;;9.70;61.10;;;;;;5134310;28;20031;-67
2022/03/23 08:09:12;;;;;;;35.78;19.30;;;9.80;60.80;;;;;;5134278;28;20035;-66
2022/03/23 08:11:38;;;;;;;35.40;18.25;;;9.90;60.60;;;;;;5134234;28;20028;-67
2022/03/23 08:14:04;;;;;;;35.15;18.83;;;10.10;60.70;;;;;;5134131;28;20065;-67
2022/03/23 08:16:30;;;;;;;39.40;18.58;;;10.20;60.50;;;;;;5134073;28;20066;-67
2022/03/23 08:18:55;;;;;;;38.42;18.67;;;10.30;60.30;;;;;;5134176;28;20023;-66
2022/03/23 08:21:22;;;;;;;39.88;19.02;;;10.40;60.20;;;;;;5134080;28;20032;-66
2022/03/23 08:23:48;;;;;;;36.03;17.80;;;10.60;60.00;;;;;;5134104;28;20049;-66
2022/03/23 08:26:15;;;;;;;43.00;18.58;;;10.70;58.60;;;;;;5134084;28;20028;-66
2022/03/23 08:28:42;;;;;;;37.33;18.98;;;10.70;58.70;;;;;;5133996;28;20027;-66
2022/03/23 08:31:09;;;;;;;36.00;17.98;;;10.80;56.90;;;;;;5134125;28;20020;-66
2022/03/23 08:33:34;;;;;;;36.28;18.17;;;10.80;56.30;;;;;;5133889;28;20101;-66
2022/03/23 08:36:05;;;;;;;34.92;19.35;;;11.00;56.30;;;;;;5132996;28;20027;-66
2022/03/23 08:38:30;;;;;;;38.15;19.50;;;11.10;57.10;;;;;;5134011;28;20079;-66
2022/03/23 08:40:56;;;;;;;36.90;19.17;;;11.20;57.50;;;;;;5133873;28;20028;-66
2022/03/23 08:43:22;;;;;;;36.35;18.95;;;11.30;56.70;;;;;;5133872;28;20027;-66
2022/03/23 08:45:48;;;;;;;35.63;19.35;;;11.40;56.00;;;;;;5133800;28;20027;-66
2022/03/23 08:48:14;;;;;;;36.92;19.13;;;11.60;56.20;;;;;;5133785;28;20024;-66
2022/03/23 08:50:42;;;;;;;38.67;19.13;;;11.60;55.80;;;;;;5133776;28;20031;-66
2022/03/23 08:53:08;;;;;;;38.50;18.95;;;11.70;54.40;;;;;;5133701;28;20023;-66
2022/03/23 08:55:33;;;;;;;37.97;18.48;;;11.90;54.20;;;;;;5133523;28;20065;-66
2022/03/23 08:57:59;;;;;;;36.28;18.27;;;12.00;54.00;;;;;;5133764;28;20020;-65
2022/03/23 09:00:26;;;;;;;35.25;19.35;;;12.10;54.10;;;;;;5133683;28;20027;-65
2022/03/23 09:02:52;;;;;;;34.15;17.73;;;12.30;53.40;;;;;;5133707;28;20020;-66
2022/03/23 09:05:19;;;;;;;36.65;18.92;;;12.40;53.30;;;;;;5133677;28;20032;-67
2022/03/23 09:07:45;;;;;;;36.38;18.80;;;12.50;53.70;;;;;;5133680;28;20024;-67
2022/03/23 09:10:13;;;;;;;35.25;19.02;;;12.70;51.70;;;;;;5133617;28;20028;-67
2022/03/23 09:12:39;;;;;;;37.22;19.40;;;12.80;51.80;;;;;;5133591;28;20027;-67
2022/03/23 09:15:07;;;;;;;35.25;19.10;;;13.00;51.70;;;;;;5132532;28;20039;-67
2022/03/23 09:17:32;;;;;;;39.97;18.85;;;13.10;51.60;;;;;;5132227;28;20111;-67
2022/03/23 09:20:00;;;;;;;39.67;17.35;;;13.30;51.30;;;;;;5133629;28;20053;-66
2022/03/23 09:22:27;;;;;;;35.85;18.25;;;13.40;49.50;;;;;;5133499;28;20034;-65
2022/03/23 09:24:53;;;;;;;38.45;18.08;;;13.40;49.20;;;;;;5133484;28;20395;-66
2022/03/23 09:27:19;;;;;;;31.63;18.85;;;13.50;47.20;;;;;;5133459;28;20024;-66
2022/03/23 09:29:45;;;;;;;36.10;18.10;;;13.60;47.60;;;;;;5133451;28;20464;-66
2022/03/23 09:32:12;;;;;;;32.42;17.40;;;13.70;48.20;;;;;;5133398;28;20090;-66
2022/03/23 09:34:39;;;;;;;35.63;18.63;;;13.90;47.20;;;;;;5133317;28;20380;-66
2022/03/23 09:39:50;;;;;;;35.92;18.13;;;14.00;46.90;;;;;;5133424;28;20123;-66
2022/03/23 09:42:18;;;;;;;36.40;18.02;;;14.10;46.40;;;;;;5132345;28;20053;-66
2022/03/23 09:44:47;;;;;;;34.50;17.67;;;14.20;45.90;;;;;;5133244;28;20047;-66
2022/03/23 09:47:14;;;;;;;38.67;19.88;;;14.30;45.80;;;;;;5135416;28;20020;-66
2022/03/23 09:49:40;;;;;;;34.20;18.33;;;14.40;46.20;;;;;;5137060;28;20047;-66
2022/03/23 09:52:05;;;;;;;32.05;17.92;;;14.50;45.30;;;;;;5137007;28;20027;-66
2022/03/23 09:54:31;;;;;;;35.10;18.38;;;14.60;45.20;;;;;;5136986;28;20032;-66
2022/03/23 09:56:57;;;;;;;33.63;18.40;;;14.80;45.90;;;;;;5136887;28;20069;-66
2022/03/23 09:59:23;;;;;;;38.10;19.33;;;14.90;46.50;;;;;;5136837;28;20020;-66
2022/03/23 10:01:55;;;;;;;34.28;18.80;;;15.20;45.70;;;;;;5136767;28;20032;-66
2022/03/23 10:04:45;;;;;;;37.17;19.30;;;15.30;46.10;;;;;;5136795;28;20037;-66
2022/03/23 10:07:19;;;;;;;33.13;19.27;;;15.40;46.00;;;;;;5136691;28;20052;-66
2022/03/23 10:10:36;;;;;;;35.80;19.00;;;15.70;45.80;;;;;;5136721;28;20043;-67
2022/03/23 10:13:40;;;;;;;34.25;18.88;;;15.90;45.40;;;;;;5136734;28;20023;-67
2022/03/23 10:16:27;;;;;;;34.13;19.05;;;16.00;44.90;;;;;;5136298;28;20052;-66
2022/03/23 10:18:53;;;;;;;34.97;18.50;;;16.00;43.70;;;;;;5136616;28;20057;-67
2022/03/23 10:21:24;;;;;;;36.30;19.50;;;16.00;42.20;;;;;;5136399;28;20031;-67
2022/03/23 10:24:10;;;;;;;35.50;19.10;;;16.00;42.90;;;;;;5136429;28;20026;-67
2022/03/23 10:26:37;;;;;;;34.47;18.63;;;16.20;43.60;;;;;;5104475;27;20091;-66
2022/03/23 10:29:04;;;;;;;36.42;19.00;;;16.40;43.20;;;;;;5136166;28;20020;-67
2022/03/23 10:31:31;;;;;;;31.65;18.52;;;16.40;41.60;;;;;;5136236;27;20027;-67
2022/03/23 10:34:08;;;;;;;35.60;18.80;;;16.50;42.60;;;;;;5136064;28;20024;-66
2022/03/23 10:36:40;;;;;;;34.67;18.90;;;16.70;42.50;;;;;;5136084;28;20042;-66
2022/03/23 10:39:12;;;;;;;33.25;18.65;;;16.90;42.40;;;;;;5136038;28;20024;-66
2022/03/23 10:41:39;;;;;;;35.70;18.52;;;17.10;41.60;;;;;;5136084;28;20015;-66
2022/03/23 10:44:18;;;;;;;33.45;18.38;;;17.10;41.10;;;;;;5135989;27;20032;-67
2022/03/23 10:46:44;;;;;;;39.55;19.67;;;17.30;41.20;;;;;;5136059;28;20016;-66
2022/03/23 10:49:11;;;;;;;32.22;18.20;;;17.40;40.30;;;;;;5135910;28;20050;-67
2022/03/23 10:51:37;;;;;;;39.88;20.73;;;17.40;40.90;;;;;;5135877;28;20020;-67
2022/03/23 10:54:19;;;;;;;33.72;18.17;;;17.60;39.80;;;;;;5135721;28;20099;-66
2022/03/23 10:56:45;;;;;;;33.40;18.52;;;17.50;33.60;;;;;;5135772;28;20020;-66
2022/03/23 10:59:25;;;;;;;38.47;19.42;;;17.30;35.00;;;;;;5134705;28;20098;-65
2022/03/23 11:02:08;;;;;;;33.15;17.73;;;17.30;35.20;;;;;;5135644;28;20035;-65
2022/03/23 11:04:42;;;;;;;36.17;19.17;;;17.20;34.70;;;;;;5135678;28;20035;-66
2022/03/23 11:07:29;;;;;;;37.30;19.48;;;17.20;35.00;;;;;;5135524;28;20032;-65
2022/03/23 11:18:18;;;;;;;36.75;20.15;;;17.40;35.50;;;;;;5135364;28;20073;-65
2022/03/23 11:20:48;;;;;;;33.45;19.40;;;17.50;35.40;;;;;;5135364;28;20019;-65
2022/03/23 11:23:33;;;;;;;35.13;18.67;;;17.60;36.30;;;;;;5135221;28;20023;-65
2022/03/23 11:26:04;;;;;;;38.22;19.08;;;17.80;36.20;;;;;;5135291;28;20068;-65
2022/03/23 11:28:34;;;;;;;32.97;18.40;;;17.80;36.10;;;;;;5135016;28;20012;-66
2022/03/23 11:31:03;;;;;;;32.78;18.58;;;17.90;33.80;;;;;;5135050;28;20102;-65
2022/03/23 11:33:32;;;;;;;35.78;18.73;;;17.80;34.10;;;;;;5134974;28;20030;-66
2022/03/23 11:35:59;;;;;;;31.77;18.88;;;17.90;34.10;;;;;;5134943;28;20549;-66
2022/03/23 11:38:26;;;;;;;37.15;19.08;;;18.00;32.50;;;;;;5134957;27;20027;-66
2022/03/23 11:40:53;;;;;;;35.40;19.20;;;18.10;33.50;;;;;;5134918;27;20050;-66
2022/03/23 11:43:24;;;;;;;36.42;18.77;;;18.30;33.00;;;;;;5133949;28;20053;-65
2022/03/23 11:45:53;;;;;;;36.33;19.25;;;18.20;30.50;;;;;;5134892;28;20031;-66
2022/03/23 11:48:27;;;;;;;34.60;18.95;;;18.20;30.80;;;;;;5134740;28;20031;-66
2022/03/23 11:51:14;;;;;;;37.10;19.38;;;18.30;32.30;;;;;;5134778;28;20023;-67
2022/03/23 11:53:55;;;;;;;32.17;17.70;;;18.60;32.60;;;;;;5134530;28;20024;-66
2022/03/23 11:56:32;;;;;;;33.05;18.42;;;18.70;31.60;;;;;;5134694;28;20024;-65
2022/03/23 11:59:21;;;;;;;29.55;16.05;;;18.80;33.50;;;;;;5134593;28;20023;-66
2022/03/23 12:01:48;;;;;;;24.90;15.10;;;18.80;26.90;;;;;;5134662;28;20023;-65
2022/03/23 12:04:18;;;;;;;30.75;18.17;;;18.80;28.80;;;;;;5134510;28;20043;-65
2022/03/23 12:06:44;;;;;;;29.52;16.85;;;18.90;27.60;;;;;;5134409;28;20024;-65
2022/03/23 12:09:35;;;;;;;26.92;15.23;;;18.90;28.30;;;;;;5134139;27;20034;-65
2022/03/23 12:12:29;;;;;;;31.23;17.15;;;19.00;29.20;;;;;;5134339;28;20048;-65
2022/03/23 12:15:24;;;;;;;30.52;16.85;;;19.10;27.60;;;;;;5134202;28;20107;-66
2022/03/23 12:17:58;;;;;;;29.58;16.33;;;19.20;27.70;;;;;;5134085;28;20036;-64
2022/03/23 12:20:37;;;;;;;31.65;16.63;;;19.20;28.40;;;;;;5134266;28;20031;-65
2022/03/23 12:23:14;;;;;;;27.42;17.33;;;19.30;29.60;;;;;;5134177;28;20079;-64
2022/03/23 12:26:15;;;;;;;28.80;17.35;;;19.50;29.30;;;;;;5134149;28;20045;-66
2022/03/23 12:29:04;;;;;;;28.38;17.75;;;19.60;29.30;;;;;;5123038;28;20036;-66
2022/03/23 12:31:40;;;;;;;26.42;15.52;;;19.80;27.70;;;;;;5134063;28;20043;-66
2022/03/23 12:34:16;;;;;;;27.92;16.27;;;19.60;27.80;;;;;;5133953;28;20031;-66
2022/03/23 12:36:56;;;;;;;27.27;14.88;;;19.70;28.00;;;;;;5134122;28;20020;-65
2022/03/23 12:39:29;;;;;;;21.45;13.13;;;19.60;26.60;;;;;;5133984;28;20038;-65
2022/03/23 12:41:56;;;;;;;20.85;12.68;;;19.70;27.70;;;;;;5133868;28;20015;-65
2022/03/23 12:44:30;;;;;;;22.55;14.15;;;19.90;27.60;;;;;;5132966;28;20105;-65
2022/03/23 12:47:01;;;;;;;23.73;15.25;;;19.90;27.00;;;;;;5133830;28;20032;-66
2022/03/23 12:58:10;;;;;;;32.90;19.13;;;20.40;27.70;;;;;;5133945;28;20034;-65
2022/03/23 13:00:42;;;;;;;28.75;16.60;;;20.40;26.80;;;;;;5133684;28;20046;-65
2022/03/23 13:03:07;;;;;;;23.42;15.02;;;20.50;26.80;;;;;;5133656;28;20020;-66
2022/03/23 13:05:35;;;;;;;22.80;15.43;;;20.40;25.30;;;;;;5133654;28;20042;-65
2022/03/23 13:08:01;;;;;;;29.85;16.38;;;20.20;25.10;;;;;;5133645;28;20031;-65